EA1ABW
43.24.77N 005.47.77W
IN73CJ aprs.fi
zuletzt gehoert:
2022-01-28T11:00:43Z
zuerst gehoert:
2020-06-23T19:30:06Z

APRS Siero [IN73CJ], 0 Stunde(n), EA1ABW [12:04:32, 0s].
EA1ABW 43.24.77N 005.47.77WIN73CJ 0.728km 324°NW11:00:43ZMMDVM MMDVM HS Hat 439.8250/439.8250 CC1
LEMR 43.25.83N 005.49.60WIN73CK 3.845km 311°NW11:00:09ZAerodromo de la Morgal: LEAS 281000Z 13008KT 080V160 9999 OVC022 08/04 Q1037 NOSIG=
LEHU 43.22.63N 005.49.57WIN73CJ 4.434km 220°SW11:00:09ZHelipuerto del HUCA: LEAS 281000Z 13008KT 080V160 9999 OVC022 08/04 Q1037 NOSIG=
LEGM 43.26.15N 005.49.84WIN73CK 4.488km 315°NW11:00:06ZHelipuerto de La Morgal: LEAS 281000Z 13008KT 080V160 9999 OVC022 08/04 Q1037 NOSIG=
33D00 43.21.63N 005.51.13WIN73BI 7.207km 223°SW11:02:11Z33-D-00 Protección Civil REMER / Delegación del Gobierno en Asturias
ED1ZAU 43.23.04N 005.52.75WIN73BJ 7.604km 250°WSW11:00:28ZRD625 438.5000/430.9000 CC1
EB1JAJ 43.21.72N 005.51.82WIN73BI 7.762km 229°SW11:02:33ZMMDVM MMDVM HS Dual Hat 438.0250/431.0250 CC1
EA1L 43.20.37N 005.51.13WIN73BI 9.034km 213°SSW11:00:10Zea1l@ure.es V=13.4V,T=??.?C
Wind 161°/002kn, Böen bis 007kn, Temp 8.89c, Regen 0.0mm, letzte 24h 0.0mm, seit 0h 0.0mm, Baro 1034.6h, Hum: 81%(2EA1L-13)
EA1HWX 43.19.20N 005.50.74WIN73BH 10.709km 204°SSW11:02:50ZMMDVM DMO 435.5000/435.5000 CC1
ED1ZAS 43.27.52N 005.40.17WIN73DL 11.328km 60°ENE11:00:38ZRD985 438.2250/430.6250 CC1
ED1ZAE 43.27.99N 005.40.54WIN73DL 11.368km 55°NE10:59:16ZWIDE3-3 ESAS3-3 IN73DL WWW.EA1URG.ORG(3ED1ZAE-3)
ED1ZAY 43.29.47N 005.56.54WIN73AL 15.359km 307°NW11:00:31ZRD625 438.3000/430.7000 CC1
EA1FLQ 43.22.00N 005.36.35WIN73EI 15.630km 107°ESE11:02:33ZMMDVM DVMega 439.9750/439.9750 CC1
EB1TK 43.32.22N 005.42.32WIN73DM 15.968km 26°NNE10:55:16ZWind 086°/011kn, Böen bis 016kn, Temp 8.89c, Regen 0.0mm, letzte 24h 0.0mm, seit 0h 0.0mm, Baro 1039.9h, Hum: 78%(3EB1TK-13)
EA1DZR 43.31.47N 005.40.00WIN73DM 16.403km 38°NE11:02:45ZMMDVM DVMega 431.1000/431.1000 CC1
EA1IEJ 43.31.81N 005.40.25WIN73DM 16.732km 35°NE11:01:25ZMMDVM MMDVM HS Hat 438.8500/438.8500 CC6
LEEL 43.32.98N 005.41.71WIN73DN 17.571km 26°NNE11:00:06ZHelipuerto de El Musel: LEAS 281000Z 13008KT 080V160 9999 OVC022 08/04 Q1037 NOSIG=
EA1AHA 43.32.72N 005.54.38WIN73BN 17.923km 329°NNW10:56:19ZWind 180°/005kn, Böen bis 007kn, Temp 10.00c, Regen 0.0mm, letzte 24h 0.0mm, seit 0h 0.0mm, Baro 1038.7h, Hum: 63%(3EA1AHA-13)
EB1GEM 43.30.00N 005.36.07WIN73EM 18.452km 56°NE10:56:00ZWX3in1Plus2.0 U=13.3V,T=??.?C/??.?F(3EB1GEM-3)
EA1AQK 43.16.49N 005.35.99WIN73EG 21.360km 134°SE10:30:55ZMMDVM MMDVM HS Hat 439.8500/439.8500 CC1
EB1DGC 43.12.60N 005.45.59WIN73CF 22.123km 173°S11:01:23ZMMDVM MMDVM HS Hat 433.4500/433.4500 CC1
EA1JBL 43.12.28N 005.47.42WIN73CE 22.554km 180°S11:02:37ZMMDVM DVMega 435.3000/435.3000 CC1
EA1HJA 43.28.10N 005.30.45WIN73FL 23.861km 73°ENE10:54:19Z IN73FL WX3IN1+ 2.0 - V=14.0V,TX TEMP=40.8C
IN73FL WX3IN1+ 2.0 - V=13.2V,TX TEMP=22.5C(2EA1HJA-2)
EA1RCG 43.09.45N 005.49.78WIN73CD 27.975km 186°S11:01:39ZGRUPO RADIO GALENA (GRG) 430.4500/430.4500 CC1
EA1JAY 43.29.33N 005.26.78WIN73GL 29.254km 72°ENE10:15:11ZEA1JAY(3EA1JAY-2)
EA1FHR 43.28.72N 005.26.41WIN73GL 29.388km 74°ENE11:01:47ZMMDVM MMDVM HS Hat 439.1500/439.1500 CC1
EA1HWD 43.28.96N 005.26.30WIN73GL 29.664km 74°ENE11:02:35Z144.575FM Local frecuency VHF. 434.2500/434.2500 CC1
ED1ZAD 43.07.90N 005.38.52WIN73ED 32.953km 158°SSE10:57:25ZED1ZAD-3 APRS Digi/Igate(3ED1ZAD-3)
EA1JBU 43.30.80N 005.16.20WIN73IM 43.643km 74°ENE11:00:09ZEA1JBU(3EA1JBU-2)
EA1JBE 43.30.90N 005.16.15WIN73IM 43.770km 74°ENE11:00:10ZEA1JBU(3EA1JBE-13)
MAIN QTH http://qrz.com/db/ea1jbe(2EA1JBE-1)
LETN 43.20.05N 006.22.69WIN63TI 48.163km 260°W11:00:05ZAerodromo de La Curiscada (Tineo): LEAS 281000Z 13008KT 080V160 9999 OVC022 08/04 Q1037 NOSIG=
EA1GHF 43.17.99N 006.22.79WIN63TH 49.095km 256°WSW11:02:33ZMMDVM MMDVM HS Hat 434.4000/434.4000 CC1

aprs.pl 5.0.011w DL3EL © 2006-2021 [1505521]